createdAt,value
2018-04-01T00:02:36.889Z,2.97
2018-04-01T00:07:39.617Z,2.70
2018-04-01T00:12:42.480Z,2.70
2018-04-01T00:17:45.298Z,2.67
2018-04-01T00:22:48.072Z,2.27
2018-04-01T00:27:50.868Z,3.10
2018-04-01T00:32:55.313Z,3.23
2018-04-01T00:37:58.300Z,2.67
2018-04-01T00:43:01.420Z,2.30
2018-04-01T00:48:04.535Z,2.90
2018-04-01T00:53:07.430Z,2.87
2018-04-01T00:58:10.398Z,2.43
2018-04-01T01:03:13.205Z,2.47
2018-04-01T01:08:16.204Z,2.10
2018-04-01T01:13:19.145Z,2.17
2018-04-01T01:18:22.015Z,2.00
2018-04-01T01:23:24.770Z,2.00
2018-04-01T01:28:27.508Z,2.33
2018-04-01T01:33:31.025Z,2.10
2018-04-01T01:38:34.799Z,2.07
2018-04-01T01:43:37.619Z,1.80
2018-04-01T01:48:40.360Z,1.80
2018-04-01T01:53:43.203Z,2.00
2018-04-01T01:58:45.939Z,1.83
2018-04-01T02:03:48.727Z,1.70
2018-04-01T02:08:51.459Z,2.03
2018-04-01T02:13:54.905Z,1.83
2018-04-01T02:18:57.620Z,2.10
2018-04-01T02:24:00.834Z,1.80
2018-04-01T02:29:03.551Z,1.90
2018-04-01T02:34:06.283Z,1.60
2018-04-01T02:39:09.000Z,2.33
2018-04-01T02:44:12.120Z,1.80
2018-04-01T02:49:14.836Z,1.93
2018-04-01T02:54:17.790Z,2.43
2018-04-01T02:59:20.916Z,1.77
2018-04-01T03:04:23.663Z,2.67
2018-04-01T03:09:26.383Z,2.27
2018-04-01T03:14:29.506Z,2.43
2018-04-01T03:19:32.224Z,1.60
2018-04-01T03:24:34.953Z,2.17
2018-04-01T03:29:37.723Z,2.20
2018-04-01T03:34:40.465Z,1.63
2018-04-01T03:39:43.579Z,2.20
2018-04-01T03:44:46.328Z,2.67
2018-04-01T03:49:49.142Z,2.30
2018-04-01T03:54:51.864Z,2.53
2018-04-01T03:59:54.583Z,2.77
2018-04-01T04:04:57.349Z,3.53
2018-04-01T04:10:01.547Z,2.90
2018-04-01T04:15:04.260Z,4.63
2018-04-01T04:20:07.399Z,3.90
2018-04-01T04:25:10.146Z,2.97
2018-04-01T04:30:12.958Z,3.53
2018-04-01T04:35:16.073Z,3.07
2018-04-01T04:40:18.816Z,3.27
2018-04-01T04:45:21.582Z,2.70
2018-04-01T04:50:24.295Z,1.90
2018-04-01T04:55:27.475Z,2.50
2018-04-01T05:00:30.350Z,2.70
2018-04-01T05:05:33.107Z,1.80
2018-04-01T05:10:35.837Z,2.20
2018-04-01T05:15:38.610Z,1.57
2018-04-01T05:20:41.613Z,1.27
2018-04-01T05:25:44.426Z,1.73
2018-04-01T05:30:47.165Z,1.60
2018-04-01T05:35:50.198Z,1.70
2018-04-01T05:40:53.347Z,1.57
2018-04-01T05:45:56.355Z,1.13
2018-04-01T05:50:59.103Z,1.50
2018-04-01T05:56:02.204Z,1.47
2018-04-01T06:01:05.318Z,1.73
2018-04-01T06:06:08.070Z,1.50
2018-04-01T06:11:11.124Z,1.50
2018-04-01T06:16:13.919Z,1.60
2018-04-01T06:21:17.103Z,1.60
2018-04-01T06:26:20.002Z,1.60
2018-04-01T06:31:22.778Z,4.37
2018-04-01T06:36:26.259Z,2.80
2018-04-01T06:41:29.024Z,3.57
2018-04-01T06:46:32.149Z,4.40
2018-04-01T06:51:36.611Z,2.33
2018-04-01T06:56:40.681Z,2.23
2018-04-01T07:01:44.144Z,2.23
2018-04-01T07:06:47.076Z,2.03
2018-04-01T07:11:50.208Z,2.20
2018-04-01T07:16:52.918Z,1.93
2018-04-01T07:21:55.876Z,2.40
2018-04-01T07:27:00.862Z,2.20
2018-04-01T07:32:03.613Z,3.13
2018-04-01T07:37:06.740Z,2.10
2018-04-01T07:42:10.040Z,1.50
2018-04-01T07:47:14.108Z,1.50
2018-04-01T07:52:17.229Z,1.27
2018-04-01T07:57:20.150Z,1.67
2018-04-01T08:02:45.369Z,1.23
2018-04-01T08:07:48.625Z,0.90
2018-04-01T08:12:52.902Z,1.27
2018-04-01T08:17:56.997Z,1.03
2018-04-01T08:22:59.921Z,1.00
2018-04-01T08:28:03.277Z,1.00
2018-04-01T08:33:06.123Z,1.97
2018-04-01T08:38:09.400Z,1.37
2018-04-01T08:43:13.993Z,1.87
2018-04-01T08:48:16.850Z,2.70
2018-04-01T08:53:19.678Z,3.10
2018-04-01T08:58:22.802Z,2.23
2018-04-01T09:03:25.565Z,4.00
2018-04-01T09:08:28.704Z,1.30
2018-04-01T09:13:31.432Z,1.40
2018-04-01T09:18:34.173Z,1.60
2018-04-01T09:23:36.915Z,1.20
2018-04-01T09:28:39.649Z,1.30
2018-04-01T09:33:42.792Z,1.23
2018-04-01T09:38:45.666Z,1.20
2018-04-01T09:43:48.729Z,1.10
2018-04-01T09:48:51.452Z,1.13
2018-04-01T09:53:54.205Z,0.80
2018-04-01T09:58:56.928Z,1.50
2018-04-01T10:04:01.620Z,1.27
2018-04-01T10:09:04.974Z,0.90
2018-04-01T10:14:09.235Z,1.10
2018-04-01T10:19:12.460Z,1.20
2018-04-01T10:24:15.809Z,2.73
2018-04-01T10:29:19.246Z,1.60
2018-04-01T10:34:23.071Z,0.90
2018-04-01T10:39:26.339Z,1.00
2018-04-01T10:44:29.571Z,1.00
2018-04-01T10:49:32.825Z,1.10
2018-04-01T10:54:37.298Z,1.27
2018-04-01T10:59:40.505Z,0.80
2018-04-01T11:04:43.803Z,3.80
2018-04-01T11:09:46.642Z,4.50
2018-04-01T11:14:49.515Z,3.37
2018-04-01T11:19:52.557Z,1.00
2018-04-01T11:24:55.384Z,1.40
2018-04-01T11:29:59.601Z,0.70
2018-04-01T11:35:02.375Z,1.03
2018-04-01T11:40:05.194Z,1.03
2018-04-01T11:45:08.317Z,0.80
2018-04-01T11:50:12.837Z,0.93
2018-04-01T11:55:15.635Z,0.77
2018-04-01T12:00:18.751Z,1.50
2018-04-01T12:05:21.504Z,1.10
2018-04-01T12:10:24.308Z,1.97
2018-04-01T12:15:27.603Z,0.70
2018-04-01T12:20:30.916Z,1.80
2018-04-01T12:25:33.958Z,1.40
2018-04-01T12:30:37.202Z,0.80
2018-04-01T12:35:39.929Z,2.53
2018-04-01T12:40:43.814Z,1.50
2018-04-01T12:45:52.064Z,1.30
2018-04-01T12:50:57.946Z,1.30
2018-04-01T12:56:00.878Z,1.30
2018-04-01T13:01:04.299Z,1.30
2018-04-01T13:06:08.954Z,0.90
2018-04-01T13:11:13.221Z,1.60
2018-04-01T13:16:16.482Z,1.00
2018-04-01T13:21:20.182Z,1.50
2018-04-01T13:26:22.926Z,1.80
2018-04-01T13:31:25.656Z,2.63
2018-04-01T13:36:28.838Z,2.80
2018-04-01T13:41:32.183Z,1.40
2018-04-01T13:46:34.913Z,1.53
2018-04-01T13:51:37.650Z,1.57
2018-04-01T13:56:41.963Z,1.10
2018-04-01T14:01:44.684Z,1.07
2018-04-01T14:06:47.413Z,0.80
2018-04-01T14:11:50.142Z,0.83
2018-04-01T14:16:52.878Z,0.80
2018-04-01T14:21:55.732Z,0.70
2018-04-01T14:26:58.498Z,0.87
2018-04-01T14:32:01.638Z,0.70
2018-04-01T14:37:04.730Z,0.83
2018-04-01T14:42:07.493Z,1.20
2018-04-01T14:47:10.447Z,1.00
2018-04-01T14:52:13.603Z,1.07
2018-04-01T14:57:16.334Z,1.07
2018-04-01T15:02:19.124Z,0.50
2018-04-01T15:07:22.378Z,0.90
2018-04-01T15:12:25.217Z,0.93
2018-04-01T15:17:29.510Z,1.37
2018-04-01T15:22:33.395Z,1.20
2018-04-01T15:27:36.183Z,1.27
2018-04-01T15:32:39.070Z,1.27
2018-04-01T15:37:42.213Z,1.57
2018-04-01T15:42:46.348Z,1.50
2018-04-01T15:47:49.210Z,1.30
2018-04-01T15:52:51.932Z,1.17
2018-04-01T15:57:54.677Z,1.40
2018-04-01T16:02:58.183Z,1.43
2018-04-01T16:08:02.985Z,1.53
2018-04-01T16:13:05.865Z,1.60
2018-04-01T16:18:08.701Z,1.20
2018-04-01T16:23:11.450Z,1.67
2018-04-01T16:28:14.202Z,1.07
2018-04-01T16:33:17.017Z,1.43
2018-04-01T16:38:20.207Z,1.50
2018-04-01T16:43:22.944Z,1.20
2018-04-01T16:48:25.935Z,1.40
2018-04-01T16:53:28.698Z,1.80
2018-04-01T16:58:31.891Z,1.47
2018-04-01T17:03:34.615Z,1.50
2018-04-01T17:08:37.376Z,1.40
2018-04-01T17:13:41.033Z,1.70
2018-04-01T17:18:43.809Z,1.43
2018-04-01T17:23:46.577Z,1.30
2018-04-01T17:28:49.772Z,1.57
2018-04-01T17:33:52.782Z,1.53
2018-04-01T17:38:55.610Z,1.53
2018-04-01T17:43:58.344Z,1.73
2018-04-01T17:49:01.684Z,1.57
2018-04-01T17:54:04.709Z,1.30
2018-04-01T17:59:07.641Z,1.60
2018-04-01T18:04:11.155Z,1.63
2018-04-01T18:09:14.050Z,1.23
2018-04-01T18:14:18.913Z,1.00
2018-04-01T18:19:22.000Z,1.47
2018-04-01T18:24:24.832Z,1.50
2018-04-01T18:29:27.662Z,1.60
2018-04-01T18:34:31.180Z,1.43
2018-04-01T18:39:34.057Z,1.53
2018-04-01T18:44:37.284Z,1.30
2018-04-01T18:49:40.555Z,1.50
2018-04-01T18:54:44.467Z,1.33
2018-04-01T18:59:47.774Z,1.40
2018-04-01T19:04:50.970Z,1.70
2018-04-01T19:09:54.298Z,1.20
2018-04-01T19:14:57.500Z,1.70
2018-04-01T19:20:01.017Z,1.60
2018-04-01T19:25:04.494Z,1.80
2018-04-01T19:30:08.228Z,1.50
2018-04-01T19:35:11.812Z,1.60
2018-04-01T19:40:15.428Z,1.67
2018-04-01T19:45:18.826Z,2.10
2018-04-01T19:50:22.904Z,3.30
2018-04-01T19:55:26.372Z,4.40
2018-04-01T20:00:29.955Z,2.90
2018-04-01T20:05:33.769Z,2.30
2018-04-01T20:10:37.007Z,3.93
2018-04-01T20:15:40.386Z,1.80
2018-04-01T20:20:44.113Z,1.37
2018-04-01T20:25:47.618Z,2.10
2018-04-01T20:30:51.113Z,2.20
2018-04-01T20:35:54.950Z,2.60
2018-04-01T20:40:58.349Z,1.80
2018-04-01T20:46:01.836Z,1.83
2018-04-01T20:51:05.332Z,4.17
2018-04-01T20:56:08.947Z,1.97
2018-04-01T21:01:12.676Z,1.67
2018-04-01T21:06:15.959Z,1.70
2018-04-01T21:11:19.684Z,1.90
2018-04-01T21:16:23.422Z,1.80
2018-04-01T21:21:26.983Z,2.10
2018-04-01T21:26:30.288Z,1.40
2018-04-01T21:31:34.116Z,1.27
2018-04-01T21:36:37.832Z,1.87
2018-04-01T21:41:42.160Z,1.70
2018-04-01T21:46:45.974Z,1.70
2018-04-01T21:51:50.148Z,1.43
2018-04-01T21:56:56.935Z,2.43
2018-04-01T22:02:01.500Z,1.73
2018-04-01T22:07:05.530Z,2.00
2018-04-01T22:12:10.068Z,1.87
2018-04-01T22:17:15.458Z,1.70
2018-04-01T22:22:19.908Z,1.80
2018-04-01T22:27:27.215Z,2.10
2018-04-01T22:32:31.807Z,1.80
2018-04-01T22:37:36.612Z,1.60
2018-04-01T22:42:43.191Z,1.80
2018-04-01T22:47:51.217Z,1.67
2018-04-01T22:52:54.588Z,1.63
2018-04-01T22:57:57.818Z,1.73
2018-04-01T23:03:01.110Z,1.90
2018-04-01T23:08:04.738Z,1.90
2018-04-01T23:13:07.976Z,3.27
2018-04-01T23:18:11.195Z,2.47
2018-04-01T23:23:14.446Z,3.17
2018-04-01T23:28:17.656Z,2.30
2018-04-01T23:33:20.860Z,1.50
2018-04-01T23:44:31.322Z,1.70
2018-04-01T23:49:34.944Z,1.90
2018-04-01T23:54:38.221Z,1.80
2018-04-01T23:59:41.526Z,1.63
